sensor_id;sensor_type;location;lat;lon;timestamp;P1;durP1;ratioP1;P2;durP2;ratioP2
44985;SDS011;30721;49.380;7.736;2023-09-19T00:00:42;2.25;;;2.03;;
44985;SDS011;30721;49.380;7.736;2023-09-19T00:03:08;3.55;;;1.58;;
44985;SDS011;30721;49.380;7.736;2023-09-19T00:05:35;3.60;;;1.80;;
44985;SDS011;30721;49.380;7.736;2023-09-19T00:08:01;3.72;;;1.55;;
44985;SDS011;30721;49.380;7.736;2023-09-19T00:10:30;3.17;;;1.60;;
44985;SDS011;30721;49.380;7.736;2023-09-19T00:12:57;2.95;;;1.77;;
44985;SDS011;30721;49.380;7.736;2023-09-19T00:15:27;2.58;;;1.80;;
44985;SDS011;30721;49.380;7.736;2023-09-19T00:17:55;2.47;;;1.73;;
44985;SDS011;30721;49.380;7.736;2023-09-19T00:20:21;2.33;;;1.48;;
44985;SDS011;30721;49.380;7.736;2023-09-19T00:22:48;2.97;;;1.67;;
44985;SDS011;30721;49.380;7.736;2023-09-19T00:25:17;4.72;;;1.90;;
44985;SDS011;30721;49.380;7.736;2023-09-19T00:27:42;3.53;;;1.90;;
44985;SDS011;30721;49.380;7.736;2023-09-19T00:30:10;2.38;;;1.85;;
44985;SDS011;30721;49.380;7.736;2023-09-19T00:32:41;3.03;;;1.88;;
44985;SDS011;30721;49.380;7.736;2023-09-19T00:35:07;4.13;;;2.15;;
44985;SDS011;30721;49.380;7.736;2023-09-19T00:37:36;3.03;;;2.10;;
44985;SDS011;30721;49.380;7.736;2023-09-19T00:40:06;3.38;;;1.85;;
44985;SDS011;30721;49.380;7.736;2023-09-19T00:42:37;2.38;;;2.05;;
44985;SDS011;30721;49.380;7.736;2023-09-19T00:45:06;3.17;;;1.90;;
44985;SDS011;30721;49.380;7.736;2023-09-19T00:47:34;2.78;;;2.10;;
44985;SDS011;30721;49.380;7.736;2023-09-19T00:50:00;2.75;;;2.03;;
44985;SDS011;30721;49.380;7.736;2023-09-19T00:52:26;3.00;;;2.00;;
44985;SDS011;30721;49.380;7.736;2023-09-19T00:54:52;2.88;;;1.83;;
44985;SDS011;30721;49.380;7.736;2023-09-19T00:57:17;4.93;;;2.58;;
44985;SDS011;30721;49.380;7.736;2023-09-19T00:59:44;3.67;;;2.58;;
44985;SDS011;30721;49.380;7.736;2023-09-19T01:02:10;2.60;;;2.38;;
44985;SDS011;30721;49.380;7.736;2023-09-19T01:04:39;3.55;;;2.33;;
44985;SDS011;30721;49.380;7.736;2023-09-19T01:07:05;3.85;;;2.63;;
44985;SDS011;30721;49.380;7.736;2023-09-19T01:09:31;3.92;;;3.40;;
44985;SDS011;30721;49.380;7.736;2023-09-19T01:11:58;3.55;;;2.47;;
44985;SDS011;30721;49.380;7.736;2023-09-19T01:17:27;3.70;;;2.42;;
44985;SDS011;30721;49.380;7.736;2023-09-19T01:20:03;4.03;;;2.40;;
44985;SDS011;30721;49.380;7.736;2023-09-19T01:30:48;2.92;;;2.10;;
44985;SDS011;30721;49.380;7.736;2023-09-19T01:33:19;3.00;;;2.80;;
44985;SDS011;30721;49.380;7.736;2023-09-19T01:35:44;2.92;;;2.28;;
44985;SDS011;30721;49.380;7.736;2023-09-19T01:38:10;4.03;;;2.53;;
44985;SDS011;30721;49.380;7.736;2023-09-19T01:40:43;2.95;;;2.38;;
44985;SDS011;30721;49.380;7.736;2023-09-19T01:43:22;2.70;;;2.50;;
44985;SDS011;30721;49.380;7.736;2023-09-19T01:46:02;3.08;;;2.45;;
44985;SDS011;30721;49.380;7.736;2023-09-19T01:51:18;4.35;;;3.05;;
44985;SDS011;30721;49.380;7.736;2023-09-19T01:53:51;5.05;;;2.55;;
44985;SDS011;30721;49.380;7.736;2023-09-19T01:59:02;3.38;;;3.08;;
44985;SDS011;30721;49.380;7.736;2023-09-19T02:01:30;3.60;;;2.80;;
44985;SDS011;30721;49.380;7.736;2023-09-19T02:03:56;4.68;;;3.15;;
44985;SDS011;30721;49.380;7.736;2023-09-19T02:06:21;3.17;;;2.70;;
44985;SDS011;30721;49.380;7.736;2023-09-19T02:08:47;2.47;;;2.28;;
44985;SDS011;30721;49.380;7.736;2023-09-19T02:11:13;2.63;;;2.42;;
44985;SDS011;30721;49.380;7.736;2023-09-19T02:13:38;4.43;;;2.80;;
44985;SDS011;30721;49.380;7.736;2023-09-19T02:16:06;5.30;;;2.97;;
44985;SDS011;30721;49.380;7.736;2023-09-19T02:18:34;4.85;;;3.05;;
44985;SDS011;30721;49.380;7.736;2023-09-19T02:21:02;3.67;;;3.38;;
44985;SDS011;30721;49.380;7.736;2023-09-19T02:23:29;4.38;;;3.60;;
44985;SDS011;30721;49.380;7.736;2023-09-19T02:25:55;5.38;;;3.95;;
44985;SDS011;30721;49.380;7.736;2023-09-19T02:28:26;5.07;;;3.83;;
44985;SDS011;30721;49.380;7.736;2023-09-19T02:30:58;6.45;;;3.65;;
44985;SDS011;30721;49.380;7.736;2023-09-19T02:33:26;4.20;;;3.80;;
44985;SDS011;30721;49.380;7.736;2023-09-19T02:35:55;5.20;;;3.40;;
44985;SDS011;30721;49.380;7.736;2023-09-19T02:38:25;4.63;;;3.35;;
44985;SDS011;30721;49.380;7.736;2023-09-19T02:40:51;4.40;;;3.50;;
44985;SDS011;30721;49.380;7.736;2023-09-19T02:43:17;5.60;;;3.92;;
44985;SDS011;30721;49.380;7.736;2023-09-19T02:45:45;4.63;;;3.92;;
44985;SDS011;30721;49.380;7.736;2023-09-19T02:48:11;3.30;;;3.00;;
44985;SDS011;30721;49.380;7.736;2023-09-19T02:50:37;3.78;;;3.30;;
44985;SDS011;30721;49.380;7.736;2023-09-19T02:53:04;5.47;;;3.28;;
44985;SDS011;30721;49.380;7.736;2023-09-19T02:55:30;4.43;;;3.83;;
44985;SDS011;30721;49.380;7.736;2023-09-19T02:57:56;5.88;;;3.70;;
44985;SDS011;30721;49.380;7.736;2023-09-19T03:00:23;5.57;;;3.88;;
44985;SDS011;30721;49.380;7.736;2023-09-19T03:02:55;4.70;;;4.20;;
44985;SDS011;30721;49.380;7.736;2023-09-19T03:05:22;6.30;;;4.03;;
44985;SDS011;30721;49.380;7.736;2023-09-19T03:07:51;5.05;;;3.50;;
44985;SDS011;30721;49.380;7.736;2023-09-19T03:10:18;4.30;;;3.38;;
44985;SDS011;30721;49.380;7.736;2023-09-19T03:12:44;4.00;;;3.33;;
44985;SDS011;30721;49.380;7.736;2023-09-19T03:15:09;5.43;;;3.05;;
44985;SDS011;30721;49.380;7.736;2023-09-19T03:17:36;3.35;;;2.97;;
44985;SDS011;30721;49.380;7.736;2023-09-19T03:20:03;4.07;;;2.88;;
44985;SDS011;30721;49.380;7.736;2023-09-19T03:22:34;5.38;;;2.83;;
44985;SDS011;30721;49.380;7.736;2023-09-19T03:24:59;4.03;;;2.60;;
44985;SDS011;30721;49.380;7.736;2023-09-19T03:27:25;5.05;;;3.42;;
44985;SDS011;30721;49.380;7.736;2023-09-19T03:29:52;4.10;;;2.70;;
44985;SDS011;30721;49.380;7.736;2023-09-19T03:32:19;4.18;;;3.30;;
44985;SDS011;30721;49.380;7.736;2023-09-19T03:34:45;2.78;;;2.58;;
44985;SDS011;30721;49.380;7.736;2023-09-19T03:37:13;4.75;;;3.25;;
44985;SDS011;30721;49.380;7.736;2023-09-19T03:39:40;5.95;;;2.70;;
44985;SDS011;30721;49.380;7.736;2023-09-19T03:42:06;3.47;;;2.40;;
44985;SDS011;30721;49.380;7.736;2023-09-19T03:44:32;4.00;;;2.70;;
44985;SDS011;30721;49.380;7.736;2023-09-19T03:46:58;6.80;;;2.58;;
44985;SDS011;30721;49.380;7.736;2023-09-19T03:49:24;4.07;;;2.90;;
44985;SDS011;30721;49.380;7.736;2023-09-19T03:51:50;4.05;;;2.78;;
44985;SDS011;30721;49.380;7.736;2023-09-19T03:54:16;2.92;;;2.63;;
44985;SDS011;30721;49.380;7.736;2023-09-19T03:56:45;4.63;;;2.63;;
44985;SDS011;30721;49.380;7.736;2023-09-19T03:59:11;4.85;;;2.75;;
44985;SDS011;30721;49.380;7.736;2023-09-19T04:01:37;6.90;;;3.00;;
44985;SDS011;30721;49.380;7.736;2023-09-19T04:04:03;5.55;;;2.67;;
44985;SDS011;30721;49.380;7.736;2023-09-19T04:06:36;4.05;;;2.63;;
44985;SDS011;30721;49.380;7.736;2023-09-19T04:09:04;4.72;;;2.20;;
44985;SDS011;30721;49.380;7.736;2023-09-19T04:11:32;3.08;;;2.58;;
44985;SDS011;30721;49.380;7.736;2023-09-19T04:13:58;3.25;;;2.30;;
44985;SDS011;30721;49.380;7.736;2023-09-19T04:16:24;4.18;;;2.65;;
44985;SDS011;30721;49.380;7.736;2023-09-19T04:18:49;3.95;;;2.30;;
44985;SDS011;30721;49.380;7.736;2023-09-19T04:21:15;4.13;;;2.13;;
44985;SDS011;30721;49.380;7.736;2023-09-19T04:23:41;6.40;;;2.70;;
44985;SDS011;30721;49.380;7.736;2023-09-19T04:26:06;5.18;;;2.78;;
44985;SDS011;30721;49.380;7.736;2023-09-19T04:28:32;3.08;;;2.25;;
44985;SDS011;30721;49.380;7.736;2023-09-19T04:30:59;3.83;;;2.22;;
44985;SDS011;30721;49.380;7.736;2023-09-19T04:33:25;5.30;;;2.20;;
44985;SDS011;30721;49.380;7.736;2023-09-19T04:35:52;3.78;;;2.30;;
44985;SDS011;30721;49.380;7.736;2023-09-19T04:38:20;5.07;;;2.10;;
44985;SDS011;30721;49.380;7.736;2023-09-19T04:40:46;4.80;;;2.38;;
44985;SDS011;30721;49.380;7.736;2023-09-19T04:43:12;4.30;;;1.83;;
44985;SDS011;30721;49.380;7.736;2023-09-19T04:45:38;5.13;;;2.75;;
44985;SDS011;30721;49.380;7.736;2023-09-19T04:48:04;4.97;;;2.30;;
44985;SDS011;30721;49.380;7.736;2023-09-19T04:50:31;2.78;;;2.10;;
44985;SDS011;30721;49.380;7.736;2023-09-19T04:52:57;4.65;;;1.95;;
44985;SDS011;30721;49.380;7.736;2023-09-19T04:55:24;4.45;;;1.67;;
44985;SDS011;30721;49.380;7.736;2023-09-19T04:57:50;4.32;;;2.13;;
44985;SDS011;30721;49.380;7.736;2023-09-19T05:00:16;2.22;;;2.03;;
44985;SDS011;30721;49.380;7.736;2023-09-19T05:02:43;4.68;;;2.30;;
44985;SDS011;30721;49.380;7.736;2023-09-19T05:05:09;3.55;;;2.33;;
44985;SDS011;30721;49.380;7.736;2023-09-19T05:07:36;2.88;;;2.10;;
44985;SDS011;30721;49.380;7.736;2023-09-19T05:10:02;4.53;;;2.10;;
44985;SDS011;30721;49.380;7.736;2023-09-19T05:12:31;4.13;;;1.92;;
44985;SDS011;30721;49.380;7.736;2023-09-19T05:15:00;3.05;;;2.20;;
44985;SDS011;30721;49.380;7.736;2023-09-19T05:17:27;3.45;;;2.00;;
44985;SDS011;30721;49.380;7.736;2023-09-19T05:19:53;3.92;;;2.10;;
44985;SDS011;30721;49.380;7.736;2023-09-19T05:22:18;4.00;;;2.42;;
44985;SDS011;30721;49.380;7.736;2023-09-19T05:24:44;4.78;;;2.70;;
44985;SDS011;30721;49.380;7.736;2023-09-19T05:27:13;4.40;;;2.72;;
44985;SDS011;30721;49.380;7.736;2023-09-19T05:29:45;5.13;;;3.47;;
44985;SDS011;30721;49.380;7.736;2023-09-19T05:32:10;3.42;;;2.90;;
44985;SDS011;30721;49.380;7.736;2023-09-19T05:34:36;5.85;;;2.90;;
44985;SDS011;30721;49.380;7.736;2023-09-19T05:37:03;3.88;;;2.75;;
44985;SDS011;30721;49.380;7.736;2023-09-19T05:39:30;7.10;;;2.72;;
44985;SDS011;30721;49.380;7.736;2023-09-19T05:41:55;4.22;;;2.60;;
44985;SDS011;30721;49.380;7.736;2023-09-19T05:44:22;2.53;;;2.28;;
44985;SDS011;30721;49.380;7.736;2023-09-19T05:46:47;4.70;;;2.60;;
44985;SDS011;30721;49.380;7.736;2023-09-19T05:49:13;4.22;;;2.70;;
44985;SDS011;30721;49.380;7.736;2023-09-19T05:51:39;3.90;;;2.33;;
44985;SDS011;30721;49.380;7.736;2023-09-19T05:54:04;3.42;;;2.53;;
44985;SDS011;30721;49.380;7.736;2023-09-19T05:56:30;4.35;;;2.50;;
44985;SDS011;30721;49.380;7.736;2023-09-19T05:58:55;4.53;;;2.22;;
44985;SDS011;30721;49.380;7.736;2023-09-19T06:01:21;3.47;;;3.10;;
44985;SDS011;30721;49.380;7.736;2023-09-19T06:03:46;4.05;;;2.60;;
44985;SDS011;30721;49.380;7.736;2023-09-19T06:06:11;3.13;;;2.30;;
44985;SDS011;30721;49.380;7.736;2023-09-19T06:08:37;7.88;;;2.50;;
44985;SDS011;30721;49.380;7.736;2023-09-19T06:11:02;7.15;;;3.17;;
44985;SDS011;30721;49.380;7.736;2023-09-19T06:13:30;3.90;;;3.53;;
44985;SDS011;30721;49.380;7.736;2023-09-19T06:15:58;5.80;;;3.53;;
44985;SDS011;30721;49.380;7.736;2023-09-19T06:18:25;6.63;;;3.53;;
44985;SDS011;30721;49.380;7.736;2023-09-19T06:20:51;4.95;;;3.60;;
44985;SDS011;30721;49.380;7.736;2023-09-19T06:23:17;4.78;;;3.42;;
44985;SDS011;30721;49.380;7.736;2023-09-19T06:25:43;4.03;;;3.35;;
44985;SDS011;30721;49.380;7.736;2023-09-19T06:28:09;5.43;;;4.88;;
44985;SDS011;30721;49.380;7.736;2023-09-19T06:30:37;6.82;;;4.25;;
44985;SDS011;30721;49.380;7.736;2023-09-19T06:33:05;6.07;;;4.90;;
44985;SDS011;30721;49.380;7.736;2023-09-19T06:35:32;7.20;;;4.78;;
44985;SDS011;30721;49.380;7.736;2023-09-19T06:37:58;6.43;;;4.55;;
44985;SDS011;30721;49.380;7.736;2023-09-19T06:40:24;5.93;;;4.68;;
44985;SDS011;30721;49.380;7.736;2023-09-19T06:42:50;8.15;;;5.13;;
44985;SDS011;30721;49.380;7.736;2023-09-19T06:45:16;6.78;;;4.45;;
44985;SDS011;30721;49.380;7.736;2023-09-19T06:47:45;9.50;;;4.95;;
44985;SDS011;30721;49.380;7.736;2023-09-19T06:50:11;5.93;;;4.75;;
44985;SDS011;30721;49.380;7.736;2023-09-19T06:52:42;5.32;;;4.75;;
44985;SDS011;30721;49.380;7.736;2023-09-19T06:55:08;9.57;;;5.15;;
44985;SDS011;30721;49.380;7.736;2023-09-19T06:57:36;5.55;;;4.90;;
44985;SDS011;30721;49.380;7.736;2023-09-19T07:00:02;4.93;;;4.25;;
44985;SDS011;30721;49.380;7.736;2023-09-19T07:02:33;5.70;;;4.25;;
44985;SDS011;30721;49.380;7.736;2023-09-19T07:04:59;4.60;;;4.20;;
44985;SDS011;30721;49.380;7.736;2023-09-19T07:07:24;5.72;;;4.53;;
44985;SDS011;30721;49.380;7.736;2023-09-19T07:09:50;5.63;;;4.35;;
44985;SDS011;30721;49.380;7.736;2023-09-19T07:12:16;5.25;;;4.65;;
44985;SDS011;30721;49.380;7.736;2023-09-19T07:14:44;6.93;;;4.55;;
44985;SDS011;30721;49.380;7.736;2023-09-19T07:17:09;5.93;;;4.78;;
44985;SDS011;30721;49.380;7.736;2023-09-19T07:19:35;7.45;;;4.65;;
44985;SDS011;30721;49.380;7.736;2023-09-19T07:22:00;6.72;;;4.90;;
44985;SDS011;30721;49.380;7.736;2023-09-19T07:24:27;7.10;;;4.78;;
44985;SDS011;30721;49.380;7.736;2023-09-19T07:26:54;6.10;;;4.45;;
44985;SDS011;30721;49.380;7.736;2023-09-19T07:29:19;5.88;;;4.32;;
44985;SDS011;30721;49.380;7.736;2023-09-19T07:31:44;6.22;;;4.22;;
44985;SDS011;30721;49.380;7.736;2023-09-19T07:34:12;4.53;;;3.85;;
44985;SDS011;30721;49.380;7.736;2023-09-19T07:36:39;5.15;;;3.97;;
44985;SDS011;30721;49.380;7.736;2023-09-19T07:39:05;4.85;;;3.95;;
44985;SDS011;30721;49.380;7.736;2023-09-19T07:41:32;5.43;;;4.10;;
44985;SDS011;30721;49.380;7.736;2023-09-19T07:43:58;7.15;;;4.30;;
44985;SDS011;30721;49.380;7.736;2023-09-19T07:46:23;4.22;;;3.05;;
44985;SDS011;30721;49.380;7.736;2023-09-19T07:48:51;4.97;;;3.55;;
44985;SDS011;30721;49.380;7.736;2023-09-19T07:51:16;6.00;;;3.08;;
44985;SDS011;30721;49.380;7.736;2023-09-19T07:53:42;4.20;;;3.33;;
44985;SDS011;30721;49.380;7.736;2023-09-19T07:56:08;4.40;;;3.40;;
44985;SDS011;30721;49.380;7.736;2023-09-19T07:58:35;4.65;;;2.75;;
44985;SDS011;30721;49.380;7.736;2023-09-19T08:01:08;3.58;;;2.40;;
44985;SDS011;30721;49.380;7.736;2023-09-19T08:03:35;4.50;;;2.78;;
44985;SDS011;30721;49.380;7.736;2023-09-19T08:06:09;6.50;;;2.60;;
44985;SDS011;30721;49.380;7.736;2023-09-19T08:08:35;9.27;;;3.17;;
44985;SDS011;30721;49.380;7.736;2023-09-19T08:11:04;3.40;;;2.08;;
44985;SDS011;30721;49.380;7.736;2023-09-19T08:13:40;5.97;;;2.10;;
44985;SDS011;30721;49.380;7.736;2023-09-19T08:16:11;7.30;;;2.15;;
44985;SDS011;30721;49.380;7.736;2023-09-19T08:18:37;4.35;;;1.90;;
44985;SDS011;30721;49.380;7.736;2023-09-19T08:21:06;4.07;;;1.90;;
44985;SDS011;30721;49.380;7.736;2023-09-19T08:23:39;5.95;;;2.47;;
44985;SDS011;30721;49.380;7.736;2023-09-19T08:26:05;6.22;;;2.17;;
44985;SDS011;30721;49.380;7.736;2023-09-19T08:28:33;6.38;;;2.97;;
44985;SDS011;30721;49.380;7.736;2023-09-19T08:31:03;4.60;;;2.08;;
44985;SDS011;30721;49.380;7.736;2023-09-19T08:33:33;5.63;;;1.92;;
44985;SDS011;30721;49.380;7.736;2023-09-19T08:36:00;3.65;;;2.40;;
44985;SDS011;30721;49.380;7.736;2023-09-19T08:38:30;6.38;;;2.00;;
44985;SDS011;30721;49.380;7.736;2023-09-19T08:40:58;4.18;;;1.70;;
44985;SDS011;30721;49.380;7.736;2023-09-19T08:43:31;3.55;;;1.60;;
44985;SDS011;30721;49.380;7.736;2023-09-19T08:48:30;8.40;;;1.85;;
44985;SDS011;30721;49.380;7.736;2023-09-19T08:54:03;5.15;;;1.83;;
44985;SDS011;30721;49.380;7.736;2023-09-19T08:56:31;3.38;;;1.85;;
44985;SDS011;30721;49.380;7.736;2023-09-19T08:59:04;3.47;;;2.08;;
44985;SDS011;30721;49.380;7.736;2023-09-19T09:01:33;5.22;;;2.17;;
44985;SDS011;30721;49.380;7.736;2023-09-19T09:03:58;4.28;;;2.33;;
44985;SDS011;30721;49.380;7.736;2023-09-19T09:06:25;3.95;;;2.05;;
44985;SDS011;30721;49.380;7.736;2023-09-19T09:08:51;4.88;;;2.13;;
44985;SDS011;30721;49.380;7.736;2023-09-19T09:11:17;2.70;;;2.10;;
44985;SDS011;30721;49.380;7.736;2023-09-19T09:13:46;4.20;;;2.20;;
44985;SDS011;30721;49.380;7.736;2023-09-19T09:16:13;4.65;;;2.03;;
44985;SDS011;30721;49.380;7.736;2023-09-19T09:18:39;3.90;;;2.17;;
44985;SDS011;30721;49.380;7.736;2023-09-19T09:21:05;2.83;;;2.20;;
44985;SDS011;30721;49.380;7.736;2023-09-19T09:23:30;3.13;;;1.70;;
44985;SDS011;30721;49.380;7.736;2023-09-19T09:25:57;2.63;;;1.70;;
44985;SDS011;30721;49.380;7.736;2023-09-19T09:28:27;2.75;;;1.50;;
44985;SDS011;30721;49.380;7.736;2023-09-19T09:30:54;9.02;;;2.17;;
44985;SDS011;30721;49.380;7.736;2023-09-19T09:33:20;5.45;;;2.00;;
44985;SDS011;30721;49.380;7.736;2023-09-19T09:38:25;4.32;;;1.90;;
44985;SDS011;30721;49.380;7.736;2023-09-19T09:40:56;2.80;;;1.77;;
44985;SDS011;30721;49.380;7.736;2023-09-19T09:43:29;2.53;;;1.70;;
44985;SDS011;30721;49.380;7.736;2023-09-19T09:51:43;3.78;;;1.67;;
44985;SDS011;30721;49.380;7.736;2023-09-19T09:54:23;4.93;;;2.00;;
44985;SDS011;30721;49.380;7.736;2023-09-19T09:57:01;4.22;;;1.77;;
44985;SDS011;30721;49.380;7.736;2023-09-19T09:59:52;3.05;;;1.60;;
44985;SDS011;30721;49.380;7.736;2023-09-19T10:02:19;4.38;;;1.80;;
44985;SDS011;30721;49.380;7.736;2023-09-19T10:04:55;2.00;;;1.80;;
44985;SDS011;30721;49.380;7.736;2023-09-19T10:07:28;2.55;;;2.00;;
44985;SDS011;30721;49.380;7.736;2023-09-19T10:10:04;4.57;;;2.00;;
44985;SDS011;30721;49.380;7.736;2023-09-19T10:12:35;2.40;;;1.73;;
44985;SDS011;30721;49.380;7.736;2023-09-19T10:15:03;4.30;;;1.73;;
44985;SDS011;30721;49.380;7.736;2023-09-19T10:17:34;3.08;;;1.45;;
44985;SDS011;30721;49.380;7.736;2023-09-19T10:20:00;3.13;;;1.60;;
44985;SDS011;30721;49.380;7.736;2023-09-19T10:22:35;3.00;;;1.50;;
44985;SDS011;30721;49.380;7.736;2023-09-19T10:25:02;3.03;;;1.27;;
44985;SDS011;30721;49.380;7.736;2023-09-19T10:27:32;3.85;;;1.35;;
44985;SDS011;30721;49.380;7.736;2023-09-19T10:30:03;3.38;;;1.40;;
44985;SDS011;30721;49.380;7.736;2023-09-19T10:32:32;3.75;;;1.48;;
44985;SDS011;30721;49.380;7.736;2023-09-19T10:35:00;3.13;;;1.52;;
44985;SDS011;30721;49.380;7.736;2023-09-19T10:37:26;3.75;;;1.60;;
44985;SDS011;30721;49.380;7.736;2023-09-19T10:39:52;2.83;;;1.73;;
44985;SDS011;30721;49.380;7.736;2023-09-19T10:42:20;2.80;;;1.20;;
44985;SDS011;30721;49.380;7.736;2023-09-19T10:44:47;2.78;;;1.50;;
44985;SDS011;30721;49.380;7.736;2023-09-19T10:47:19;2.75;;;1.20;;
44985;SDS011;30721;49.380;7.736;2023-09-19T10:49:45;3.95;;;1.30;;
44985;SDS011;30721;49.380;7.736;2023-09-19T10:52:12;3.00;;;1.33;;
44985;SDS011;30721;49.380;7.736;2023-09-19T10:54:51;3.92;;;1.42;;
44985;SDS011;30721;49.380;7.736;2023-09-19T10:57:20;4.57;;;1.17;;
44985;SDS011;30721;49.380;7.736;2023-09-19T11:00:04;1.95;;;1.02;;
44985;SDS011;30721;49.380;7.736;2023-09-19T11:05:40;1.35;;;1.10;;
44985;SDS011;30721;49.380;7.736;2023-09-19T11:08:10;2.13;;;1.20;;
44985;SDS011;30721;49.380;7.736;2023-09-19T11:10:49;3.10;;;1.40;;
44985;SDS011;30721;49.380;7.736;2023-09-19T11:26:47;1.65;;;1.13;;
44985;SDS011;30721;49.380;7.736;2023-09-19T11:29:24;1.83;;;1.00;;
44985;SDS011;30721;49.380;7.736;2023-09-19T11:31:51;2.10;;;1.08;;
44985;SDS011;30721;49.380;7.736;2023-09-19T11:39:37;1.95;;;1.08;;
44985;SDS011;30721;49.380;7.736;2023-09-19T11:45:48;1.88;;;1.00;;
44985;SDS011;30721;49.380;7.736;2023-09-19T11:48:12;1.50;;;1.23;;
44985;SDS011;30721;49.380;7.736;2023-09-19T11:50:41;2.28;;;1.00;;
44985;SDS011;30721;49.380;7.736;2023-09-19T11:53:10;3.38;;;0.70;;
44985;SDS011;30721;49.380;7.736;2023-09-19T11:55:37;1.67;;;0.80;;
44985;SDS011;30721;49.380;7.736;2023-09-19T11:58:04;4.50;;;1.20;;
44985;SDS011;30721;49.380;7.736;2023-09-19T12:00:30;2.03;;;1.00;;
44985;SDS011;30721;49.380;7.736;2023-09-19T12:02:58;1.90;;;1.10;;
44985;SDS011;30721;49.380;7.736;2023-09-19T12:05:36;2.35;;;1.15;;
44985;SDS011;30721;49.380;7.736;2023-09-19T12:08:03;5.60;;;1.80;;
44985;SDS011;30721;49.380;7.736;2023-09-19T12:10:30;1.48;;;1.20;;
44985;SDS011;30721;49.380;7.736;2023-09-19T12:12:56;2.45;;;1.10;;
44985;SDS011;30721;49.380;7.736;2023-09-19T12:15:27;2.35;;;0.90;;
44985;SDS011;30721;49.380;7.736;2023-09-19T12:17:59;1.52;;;0.80;;
44985;SDS011;30721;49.380;7.736;2023-09-19T12:20:25;1.90;;;1.10;;
44985;SDS011;30721;49.380;7.736;2023-09-19T12:23:14;1.95;;;1.27;;
44985;SDS011;30721;49.380;7.736;2023-09-19T12:25:43;4.10;;;1.13;;
44985;SDS011;30721;49.380;7.736;2023-09-19T12:28:12;2.33;;;1.20;;
44985;SDS011;30721;49.380;7.736;2023-09-19T12:30:38;1.73;;;0.88;;
44985;SDS011;30721;49.380;7.736;2023-09-19T12:33:14;1.58;;;0.90;;
44985;SDS011;30721;49.380;7.736;2023-09-19T12:35:40;3.30;;;1.30;;
44985;SDS011;30721;49.380;7.736;2023-09-19T12:38:06;2.92;;;0.90;;
44985;SDS011;30721;49.380;7.736;2023-09-19T12:40:32;1.45;;;1.23;;
44985;SDS011;30721;49.380;7.736;2023-09-19T12:43:02;2.40;;;1.10;;
44985;SDS011;30721;49.380;7.736;2023-09-19T12:45:32;4.47;;;1.77;;
44985;SDS011;30721;49.380;7.736;2023-09-19T12:53:09;2.33;;;1.05;;
44985;SDS011;30721;49.380;7.736;2023-09-19T12:55:57;2.83;;;1.20;;
44985;SDS011;30721;49.380;7.736;2023-09-19T12:58:24;1.55;;;0.82;;
44985;SDS011;30721;49.380;7.736;2023-09-19T13:00:50;1.52;;;1.00;;
44985;SDS011;30721;49.380;7.736;2023-09-19T13:03:18;3.15;;;1.63;;
44985;SDS011;30721;49.380;7.736;2023-09-19T13:05:54;2.33;;;1.35;;
44985;SDS011;30721;49.380;7.736;2023-09-19T13:08:34;1.65;;;1.00;;
44985;SDS011;30721;49.380;7.736;2023-09-19T13:11:16;2.47;;;1.07;;
44985;SDS011;30721;49.380;7.736;2023-09-19T13:14:12;1.80;;;1.00;;
44985;SDS011;30721;49.380;7.736;2023-09-19T13:17:00;1.25;;;0.80;;
44985;SDS011;30721;49.380;7.736;2023-09-19T13:19:36;1.40;;;1.00;;
44985;SDS011;30721;49.380;7.736;2023-09-19T13:22:50;1.08;;;0.93;;
44985;SDS011;30721;49.380;7.736;2023-09-19T13:27:41;1.95;;;1.00;;
44985;SDS011;30721;49.380;7.736;2023-09-19T13:30:09;1.75;;;0.98;;
44985;SDS011;30721;49.380;7.736;2023-09-19T13:32:35;1.83;;;1.02;;
44985;SDS011;30721;49.380;7.736;2023-09-19T13:35:02;1.30;;;1.15;;
44985;SDS011;30721;49.380;7.736;2023-09-19T13:37:31;1.33;;;1.00;;
44985;SDS011;30721;49.380;7.736;2023-09-19T13:40:02;2.63;;;1.00;;
44985;SDS011;30721;49.380;7.736;2023-09-19T13:42:31;1.40;;;0.80;;
44985;SDS011;30721;49.380;7.736;2023-09-19T13:44:57;2.03;;;1.10;;
44985;SDS011;30721;49.380;7.736;2023-09-19T13:47:25;2.05;;;0.93;;
44985;SDS011;30721;49.380;7.736;2023-09-19T13:49:54;1.60;;;0.98;;
44985;SDS011;30721;49.380;7.736;2023-09-19T13:52:22;1.80;;;1.10;;
44985;SDS011;30721;49.380;7.736;2023-09-19T13:57:23;2.63;;;1.00;;
44985;SDS011;30721;49.380;7.736;2023-09-19T13:59:51;1.33;;;1.20;;
44985;SDS011;30721;49.380;7.736;2023-09-19T14:02:21;2.20;;;1.02;;
44985;SDS011;30721;49.380;7.736;2023-09-19T14:04:50;1.92;;;1.10;;
44985;SDS011;30721;49.380;7.736;2023-09-19T14:07:16;1.88;;;0.98;;
44985;SDS011;30721;49.380;7.736;2023-09-19T14:09:43;2.05;;;1.05;;
44985;SDS011;30721;49.380;7.736;2023-09-19T14:12:08;1.10;;;0.88;;
44985;SDS011;30721;49.380;7.736;2023-09-19T14:14:34;2.15;;;1.08;;
44985;SDS011;30721;49.380;7.736;2023-09-19T14:17:00;1.48;;;0.88;;
44985;SDS011;30721;49.380;7.736;2023-09-19T14:19:29;1.75;;;0.95;;
44985;SDS011;30721;49.380;7.736;2023-09-19T14:21:57;1.75;;;1.00;;
44985;SDS011;30721;49.380;7.736;2023-09-19T14:24:24;2.22;;;1.15;;
44985;SDS011;30721;49.380;7.736;2023-09-19T14:26:50;0.90;;;0.80;;
44985;SDS011;30721;49.380;7.736;2023-09-19T14:29:15;1.80;;;1.10;;
44985;SDS011;30721;49.380;7.736;2023-09-19T14:31:41;1.67;;;1.02;;
44985;SDS011;30721;49.380;7.736;2023-09-19T14:34:07;1.52;;;1.13;;
44985;SDS011;30721;49.380;7.736;2023-09-19T14:36:36;2.50;;;1.40;;
44985;SDS011;30721;49.380;7.736;2023-09-19T14:39:03;1.25;;;0.82;;
44985;SDS011;30721;49.380;7.736;2023-09-19T14:41:29;1.15;;;0.90;;
44985;SDS011;30721;49.380;7.736;2023-09-19T14:43:56;2.92;;;1.80;;
44985;SDS011;30721;49.380;7.736;2023-09-19T14:46:21;11.20;;;6.68;;
44985;SDS011;30721;49.380;7.736;2023-09-19T14:48:51;1.98;;;1.30;;
44985;SDS011;30721;49.380;7.736;2023-09-19T14:51:17;2.33;;;1.02;;
44985;SDS011;30721;49.380;7.736;2023-09-19T14:53:44;1.25;;;1.15;;
44985;SDS011;30721;49.380;7.736;2023-09-19T14:56:10;1.70;;;0.90;;
44985;SDS011;30721;49.380;7.736;2023-09-19T14:58:36;1.85;;;0.95;;
44985;SDS011;30721;49.380;7.736;2023-09-19T15:01:04;1.77;;;0.90;;
44985;SDS011;30721;49.380;7.736;2023-09-19T15:03:36;1.52;;;0.90;;
44985;SDS011;30721;49.380;7.736;2023-09-19T15:06:02;2.28;;;0.93;;
44985;SDS011;30721;49.380;7.736;2023-09-19T15:08:34;1.40;;;1.10;;
44985;SDS011;30721;49.380;7.736;2023-09-19T15:11:03;1.30;;;0.93;;
44985;SDS011;30721;49.380;7.736;2023-09-19T15:13:32;1.65;;;0.90;;
44985;SDS011;30721;49.380;7.736;2023-09-19T15:16:05;0.80;;;0.73;;
44985;SDS011;30721;49.380;7.736;2023-09-19T15:18:37;1.70;;;0.80;;
44985;SDS011;30721;49.380;7.736;2023-09-19T15:21:04;1.63;;;0.90;;
44985;SDS011;30721;49.380;7.736;2023-09-19T15:23:32;1.92;;;0.77;;
44985;SDS011;30721;49.380;7.736;2023-09-19T15:26:09;1.52;;;0.93;;
44985;SDS011;30721;49.380;7.736;2023-09-19T15:28:36;1.20;;;1.10;;
44985;SDS011;30721;49.380;7.736;2023-09-19T15:33:28;1.88;;;0.90;;
44985;SDS011;30721;49.380;7.736;2023-09-19T15:36:11;1.60;;;1.17;;
44985;SDS011;30721;49.380;7.736;2023-09-19T15:38:58;3.60;;;1.15;;
44985;SDS011;30721;49.380;7.736;2023-09-19T15:41:39;1.17;;;1.00;;
44985;SDS011;30721;49.380;7.736;2023-09-19T15:44:13;1.20;;;1.10;;
44985;SDS011;30721;49.380;7.736;2023-09-19T15:46:40;2.05;;;1.10;;
44985;SDS011;30721;49.380;7.736;2023-09-19T15:49:06;1.77;;;0.90;;
44985;SDS011;30721;49.380;7.736;2023-09-19T15:51:32;1.55;;;1.05;;
44985;SDS011;30721;49.380;7.736;2023-09-19T15:54:00;1.70;;;1.00;;
44985;SDS011;30721;49.380;7.736;2023-09-19T15:56:25;1.05;;;0.95;;
44985;SDS011;30721;49.380;7.736;2023-09-19T15:58:52;1.42;;;0.80;;
44985;SDS011;30721;49.380;7.736;2023-09-19T16:01:22;1.40;;;1.30;;
44985;SDS011;30721;49.380;7.736;2023-09-19T16:03:48;1.38;;;1.00;;